createdAt,value
2018-09-18T00:01:26.471Z,101131.12
2018-09-18T00:04:03.333Z,101130.62
2018-09-18T00:06:38.996Z,101122.77
2018-09-18T00:09:15.495Z,101127.14
2018-09-18T00:11:50.962Z,101123.11
2018-09-18T00:14:31.189Z,101125.49
2018-09-18T00:17:07.864Z,101127.98
2018-09-18T00:19:44.573Z,101127.98
2018-09-18T00:22:20.392Z,101125.49
2018-09-18T00:24:55.941Z,101124.45
2018-09-18T00:27:32.726Z,101122.11
2018-09-18T00:30:08.961Z,101125.80
2018-09-18T00:32:44.631Z,101127.14
2018-09-18T00:35:20.749Z,101135.37
2018-09-18T00:37:57.905Z,101131.55
2018-09-18T00:40:37.849Z,101133.89
2018-09-18T00:43:13.796Z,101132.74
2018-09-18T00:45:50.519Z,101148.99
2018-09-18T00:48:28.305Z,101142.28
2018-09-18T00:51:04.309Z,101143.28
2018-09-18T00:53:39.910Z,101140.45
2018-09-18T00:56:15.752Z,101146.70
2018-09-18T00:58:52.773Z,101144.87
2018-09-18T01:01:29.096Z,101153.45
2018-09-18T01:04:06.788Z,101146.59
2018-09-18T01:06:43.975Z,101147.09
2018-09-18T01:09:20.994Z,101149.47
2018-09-18T01:11:56.987Z,101145.94
2018-09-18T01:14:33.279Z,101153.15
2018-09-18T01:17:09.362Z,101158.17
2018-09-18T01:19:45.263Z,101154.16
2018-09-18T01:22:20.979Z,101162.39
2018-09-18T01:24:57.994Z,101158.02
2018-09-18T01:27:35.572Z,101157.22
2018-09-18T01:30:11.556Z,101151.20
2018-09-18T01:32:48.980Z,101160.59
2018-09-18T01:35:25.397Z,101167.30
2018-09-18T01:38:01.423Z,101174.00
2018-09-18T01:40:37.259Z,101178.18
2018-09-18T01:43:13.173Z,101185.38
2018-09-18T01:45:49.164Z,101178.56
2018-09-18T01:48:26.470Z,101180.89
2018-09-18T01:51:02.230Z,101175.07
2018-09-18T01:53:38.258Z,101183.92
2018-09-18T01:56:15.269Z,101182.73
2018-09-18T01:58:51.022Z,101182.39
2018-09-18T02:01:26.730Z,101179.67
2018-09-18T02:04:02.648Z,101178.80
2018-09-18T02:06:40.172Z,101186.72
2018-09-18T02:09:16.019Z,101187.06
2018-09-18T02:11:51.681Z,101196.27
2018-09-18T02:14:27.358Z,101197.30
2018-09-18T02:17:03.786Z,101202.97
2018-09-18T02:19:40.140Z,101198.30
2018-09-18T02:22:15.826Z,101199.33
2018-09-18T02:24:51.840Z,101194.13
2018-09-18T02:27:27.832Z,101196.15
2018-09-18T02:30:03.504Z,101190.97
2018-09-18T02:32:39.279Z,101188.48
2018-09-18T02:35:14.707Z,101194.34
2018-09-18T02:37:50.407Z,101205.75
2018-09-18T02:40:25.926Z,101198.20
2018-09-18T02:44:08.215Z,101209.47
2018-09-18T02:46:44.408Z,101209.16
2018-09-18T02:49:55.190Z,101212.18
2018-09-18T02:52:31.201Z,101215.17
2018-09-18T02:55:07.197Z,101222.72
2018-09-18T02:57:43.344Z,101219.20
2018-09-18T03:00:19.775Z,101222.56
2018-09-18T03:02:56.186Z,101228.11
2018-09-18T03:05:32.015Z,101226.61
2018-09-18T03:08:08.196Z,101235.16
2018-09-18T03:12:54.802Z,101236.81
2018-09-18T03:15:30.810Z,101242.27
2018-09-18T03:18:06.752Z,101245.61
2018-09-18T03:20:43.040Z,101249.10
2018-09-18T03:23:19.376Z,101251.22
2018-09-18T03:25:55.247Z,101254.40
2018-09-18T03:28:31.378Z,101255.43
2018-09-18T03:31:07.799Z,101261.45
2018-09-18T03:33:43.800Z,101265.13
2018-09-18T03:36:20.025Z,101265.81
2018-09-18T03:38:56.041Z,101266.47
2018-09-18T03:41:32.026Z,101278.73
2018-09-18T03:44:08.025Z,101284.41
2018-09-18T03:46:44.153Z,101286.09
2018-09-18T03:49:20.418Z,101290.43
2018-09-18T03:52:33.205Z,101287.09
2018-09-18T03:55:08.869Z,101295.30
2018-09-18T03:57:44.935Z,101297.98
2018-09-18T04:01:40.485Z,101302.34
2018-09-18T04:04:16.637Z,101303.69
2018-09-18T04:06:52.554Z,101294.80
2018-09-18T04:09:28.689Z,101300.66
2018-09-18T04:12:04.483Z,101299.66
2018-09-18T04:14:40.219Z,101295.33
2018-09-18T04:17:16.313Z,101302.03
2018-09-18T04:19:52.197Z,101308.42
2018-09-18T04:22:27.725Z,101305.30
2018-09-18T04:25:03.039Z,101303.73
2018-09-18T04:27:38.653Z,101314.60
2018-09-18T04:30:14.907Z,101315.45
2018-09-18T04:32:50.419Z,101314.77
2018-09-18T04:35:26.061Z,101318.06
2018-09-18T04:38:01.849Z,101318.04
2018-09-18T04:40:37.232Z,101319.03
2018-09-18T04:43:12.835Z,101335.48
2018-09-18T04:45:48.496Z,101326.74
2018-09-18T04:48:24.050Z,101326.41
2018-09-18T04:50:59.629Z,101339.28
2018-09-18T04:53:34.953Z,101325.88
2018-09-18T04:56:11.242Z,101327.37
2018-09-18T04:58:46.777Z,101325.53
2018-09-18T05:01:23.235Z,101315.79
2018-09-18T05:03:59.041Z,101318.19
2018-09-18T05:06:35.405Z,101318.31
2018-09-18T05:09:13.708Z,101316.82
2018-09-18T05:11:49.893Z,101312.11
2018-09-18T05:14:25.251Z,101309.23
2018-09-18T05:17:00.781Z,101313.61
2018-09-18T05:19:36.454Z,101308.73
2018-09-18T05:22:12.139Z,101312.27
2018-09-18T05:24:47.757Z,101311.42
2018-09-18T05:27:23.470Z,101311.73
2018-09-18T05:29:59.187Z,101310.92
2018-09-18T05:32:34.473Z,101311.73
2018-09-18T05:35:10.070Z,101311.23
2018-09-18T05:37:45.874Z,101309.89
2018-09-18T05:40:21.245Z,101311.42
2018-09-18T05:42:56.877Z,101312.77
2018-09-18T05:45:32.721Z,101307.70
2018-09-18T05:48:09.072Z,101307.39
2018-09-18T05:50:45.353Z,101308.39
2018-09-18T05:53:21.121Z,101312.42
2018-09-18T05:55:56.705Z,101316.98
2018-09-18T05:58:32.439Z,101315.29
2018-09-18T06:01:08.075Z,101309.08
2018-09-18T06:03:43.466Z,101306.09
2018-09-18T06:06:19.188Z,101304.74
2018-09-18T06:08:54.814Z,101299.53
2018-09-18T06:11:30.785Z,101300.34
2018-09-18T06:14:07.282Z,101309.58
2018-09-18T06:16:43.468Z,101303.87
2018-09-18T06:19:19.336Z,101304.71
2018-09-18T06:21:55.456Z,101311.27
2018-09-18T06:24:31.699Z,101310.61
2018-09-18T06:27:08.321Z,101310.27
2018-09-18T06:29:44.730Z,101299.53
2018-09-18T06:32:21.066Z,101295.39
2018-09-18T06:34:57.258Z,101300.22
2018-09-18T06:37:33.569Z,101300.06
2018-09-18T06:40:09.765Z,101303.78
2018-09-18T06:42:45.782Z,101304.63
2018-09-18T06:45:21.750Z,101301.59
2018-09-18T06:47:57.830Z,101297.38
2018-09-18T06:50:34.110Z,101298.07
2018-09-18T06:53:10.403Z,101293.23
2018-09-18T06:55:46.452Z,101291.89
2018-09-18T06:58:22.288Z,101296.91
2018-09-18T07:00:58.261Z,101294.73
2018-09-18T07:03:34.448Z,101303.12
2018-09-18T07:06:10.679Z,101296.91
2018-09-18T07:08:46.453Z,101298.76
2018-09-18T07:11:22.502Z,101298.10
2018-09-18T07:13:58.938Z,101298.76
2018-09-18T07:16:35.292Z,101291.73
2018-09-18T07:19:11.997Z,101290.70
2018-09-18T07:21:48.437Z,101282.34
2018-09-18T07:24:24.450Z,101288.21
2018-09-18T07:27:00.829Z,101280.84
2018-09-18T07:29:36.858Z,101280.66
2018-09-18T07:32:13.232Z,101286.22
2018-09-18T07:34:49.741Z,101280.51
2018-09-18T07:37:25.774Z,101280.01
2018-09-18T07:40:02.048Z,101276.17
2018-09-18T07:42:38.113Z,101274.48
2018-09-18T07:45:14.297Z,101275.33
2018-09-18T07:47:50.113Z,101282.53
2018-09-18T07:50:26.291Z,101275.17
2018-09-18T07:53:01.953Z,101283.22
2018-09-18T07:55:37.882Z,101272.18
2018-09-18T07:58:14.103Z,101268.16
2018-09-18T08:00:50.334Z,101263.29
2018-09-18T08:03:26.550Z,101258.42
2018-09-18T08:06:02.293Z,101258.92
2018-09-18T08:08:38.301Z,101263.48
2018-09-18T08:11:14.302Z,101261.95
2018-09-18T08:13:50.302Z,101263.29
2018-09-18T08:16:26.127Z,101261.45
2018-09-18T08:19:02.448Z,101267.16
2018-09-18T08:21:38.952Z,101264.13
2018-09-18T08:25:56.110Z,101265.47
2018-09-18T08:28:31.897Z,101267.16
2018-09-18T08:31:08.130Z,101267.47
2018-09-18T08:33:44.316Z,101271.49
2018-09-18T08:36:20.310Z,101260.77
2018-09-18T08:38:56.113Z,101267.16
2018-09-18T08:41:32.527Z,101270.84
2018-09-18T08:44:08.389Z,101266.16
2018-09-18T08:46:44.349Z,101257.42
2018-09-18T08:49:20.479Z,101259.80
2018-09-18T08:51:56.543Z,101262.14
2018-09-18T08:54:32.629Z,101264.82
2018-09-18T08:57:09.140Z,101269.34
2018-09-18T08:59:44.562Z,101269.34
2018-09-18T09:02:20.939Z,101269.72
2018-09-18T09:04:56.993Z,101266.53
2018-09-18T09:07:33.218Z,101261.98
2018-09-18T09:10:09.352Z,101257.15
2018-09-18T09:12:45.935Z,101255.46
2018-09-18T09:15:21.798Z,101268.53
2018-09-18T09:17:58.017Z,101264.00
2018-09-18T09:20:34.107Z,101267.19
2018-09-18T09:23:10.059Z,101265.53
2018-09-18T09:25:46.687Z,101265.53
2018-09-18T09:28:22.503Z,101266.53
2018-09-18T09:30:59.070Z,101263.84
2018-09-18T09:33:35.082Z,101257.14
2018-09-18T09:36:11.075Z,101254.47
2018-09-18T09:38:47.435Z,101250.97
2018-09-18T09:41:24.902Z,101243.08
2018-09-18T09:44:01.277Z,101245.45
2018-09-18T09:46:37.332Z,101243.61
2018-09-18T09:49:13.332Z,101247.63
2018-09-18T09:51:49.904Z,101237.91
2018-09-18T09:54:26.146Z,101229.86
2018-09-18T09:57:02.248Z,101230.86
2018-09-18T09:59:38.371Z,101229.52
2018-09-18T10:02:20.726Z,101228.70
2018-09-18T10:04:57.150Z,101237.25
2018-09-18T10:07:33.162Z,101233.41
2018-09-18T10:10:09.794Z,101236.59
2018-09-18T10:12:46.048Z,101244.30
2018-09-18T10:15:22.112Z,101241.30
2018-09-18T10:17:58.559Z,101238.09
2018-09-18T10:20:35.049Z,101236.75
2018-09-18T10:23:11.062Z,101234.25
2018-09-18T10:25:47.168Z,101232.91
2018-09-18T10:28:23.182Z,101226.71
2018-09-18T10:30:59.082Z,101233.76
2018-09-18T10:33:35.977Z,101229.92
2018-09-18T10:36:12.168Z,101237.13
2018-09-18T10:38:47.985Z,101225.24
2018-09-18T10:41:24.108Z,101226.89
2018-09-18T10:44:00.373Z,101231.95
2018-09-18T10:46:36.153Z,101228.92
2018-09-18T10:49:12.373Z,101233.78
2018-09-18T10:51:52.429Z,101231.61
2018-09-18T10:54:37.194Z,101231.61
2018-09-18T10:57:18.195Z,101226.73
2018-09-18T10:59:54.363Z,101220.72
2018-09-18T11:02:30.904Z,101222.56
2018-09-18T11:05:06.946Z,101219.87
2018-09-18T11:07:43.294Z,101224.44
2018-09-18T11:10:19.379Z,101227.61
2018-09-18T11:12:55.360Z,101225.61
2018-09-18T11:15:31.021Z,101222.59
2018-09-18T11:18:07.393Z,101222.59
2018-09-18T11:20:43.660Z,101228.30
2018-09-18T11:23:19.979Z,101221.25
2018-09-18T11:25:56.223Z,101220.41
2018-09-18T11:28:32.028Z,101211.87
2018-09-18T11:31:08.202Z,101212.05
2018-09-18T11:33:44.185Z,101215.73
2018-09-18T11:36:20.369Z,101216.08
2018-09-18T11:38:56.365Z,101208.22
2018-09-18T11:41:32.176Z,101213.73
2018-09-18T11:44:08.366Z,101203.88
2018-09-18T11:46:44.618Z,101206.75
2018-09-18T11:49:20.622Z,101207.42
2018-09-18T11:51:56.819Z,101212.16
2018-09-18T11:54:32.810Z,101198.41
2018-09-18T11:57:08.864Z,101204.62
2018-09-18T11:59:45.205Z,101196.58
2018-09-18T12:02:21.042Z,101197.42
2018-09-18T12:04:57.243Z,101197.77
2018-09-18T12:07:33.038Z,101201.25
2018-09-18T12:10:09.205Z,101192.41
2018-09-18T12:12:45.189Z,101196.73
2018-09-18T12:15:21.033Z,101197.23
2018-09-18T12:17:57.033Z,101203.44
2018-09-18T12:20:33.193Z,101204.77
2018-09-18T12:23:09.483Z,101199.10
2018-09-18T12:25:45.187Z,101210.14
2018-09-18T12:28:21.207Z,101213.31
2018-09-18T12:30:57.027Z,101214.66
2018-09-18T12:33:33.210Z,101217.02
2018-09-18T12:36:09.490Z,101216.52
2018-09-18T12:38:45.402Z,101216.84
2018-09-18T12:41:21.421Z,101216.52
2018-09-18T12:43:57.570Z,101218.36
2018-09-18T12:46:33.402Z,101225.56
2018-09-18T12:49:09.451Z,101227.40
2018-09-18T12:51:45.494Z,101227.09
2018-09-18T12:54:21.391Z,101225.75
2018-09-18T12:56:57.272Z,101229.23
2018-09-18T12:59:33.444Z,101228.73
2018-09-18T13:02:09.451Z,101228.89
2018-09-18T13:04:45.394Z,101228.73
2018-09-18T13:07:21.393Z,101228.89
2018-09-18T13:09:57.463Z,101228.42
2018-09-18T13:12:33.041Z,101227.20
2018-09-18T13:15:09.202Z,101229.58
2018-09-18T13:17:45.209Z,101226.05
2018-09-18T13:20:21.221Z,101231.09
2018-09-18T13:22:57.193Z,101239.64
2018-09-18T13:25:33.110Z,101240.97
2018-09-18T13:28:09.113Z,101232.59
2018-09-18T13:30:44.847Z,101237.95
2018-09-18T13:35:55.838Z,101242.34
2018-09-18T13:38:32.058Z,101241.31
2018-09-18T13:41:08.101Z,101249.16
2018-09-18T13:43:44.417Z,101247.67
2018-09-18T13:46:20.435Z,101249.52
2018-09-18T13:48:56.238Z,101247.33
2018-09-18T13:51:32.409Z,101255.22
2018-09-18T13:54:08.227Z,101255.71
2018-09-18T13:56:44.067Z,101256.70
2018-09-18T13:59:20.242Z,101255.37
2018-09-18T14:01:57.222Z,101251.34
2018-09-18T14:04:33.222Z,101257.55
2018-09-18T14:07:09.236Z,101262.41
2018-09-18T14:09:45.637Z,101268.27
2018-09-18T14:12:21.253Z,101260.73
2018-09-18T14:14:57.372Z,101273.13
2018-09-18T14:17:34.214Z,101273.47
2018-09-18T14:20:10.156Z,101274.83
2018-09-18T14:22:46.373Z,101274.17
2018-09-18T14:25:22.233Z,101280.20
2018-09-18T14:27:58.429Z,101272.66
2018-09-18T14:30:34.202Z,101276.52
2018-09-18T14:33:10.075Z,101279.88
2018-09-18T14:35:46.041Z,101290.09
2018-09-18T14:38:22.259Z,101291.77
2018-09-18T14:40:58.114Z,101286.92
2018-09-18T14:43:34.185Z,101293.12
2018-09-18T14:46:10.230Z,101290.92
2018-09-18T14:48:46.207Z,101292.59
2018-09-18T14:51:22.420Z,101287.05
2018-09-18T14:53:58.250Z,101289.92
2018-09-18T14:56:34.592Z,101289.75
2018-09-18T14:59:10.592Z,101296.30
2018-09-18T15:01:46.630Z,101300.66
2018-09-18T15:04:23.121Z,101299.03
2018-09-18T15:06:59.288Z,101298.03
2018-09-18T15:09:35.594Z,101301.05
2018-09-18T15:12:11.677Z,101301.70
2018-09-18T15:14:47.702Z,101301.34
2018-09-18T15:17:24.047Z,101298.67
2018-09-18T15:20:00.136Z,101300.65
2018-09-18T15:22:36.497Z,101303.50
2018-09-18T15:25:12.638Z,101304.48
2018-09-18T15:27:48.639Z,101300.12
2018-09-18T15:30:24.629Z,101300.79
2018-09-18T15:33:00.502Z,101298.47
2018-09-18T15:35:36.271Z,101297.30
2018-09-18T15:38:12.086Z,101293.26
2018-09-18T15:40:48.117Z,101295.27
2018-09-18T15:43:24.127Z,101295.61
2018-09-18T15:46:00.316Z,101294.77
2018-09-18T15:48:36.305Z,101294.42
2018-09-18T15:51:12.095Z,101288.58
2018-09-18T15:54:21.091Z,101288.39
2018-09-18T15:56:57.249Z,101290.08
2018-09-18T15:59:33.302Z,101291.91
2018-09-18T16:02:09.253Z,101290.22
2018-09-18T16:04:45.160Z,101287.55
2018-09-18T16:07:21.320Z,101284.20
2018-09-18T16:09:57.316Z,101285.72
2018-09-18T16:12:33.250Z,101282.02
2018-09-18T16:15:10.499Z,101276.36
2018-09-18T16:17:47.190Z,101276.36
2018-09-18T16:20:23.285Z,101284.38
2018-09-18T16:22:59.537Z,101285.37
2018-09-18T16:25:35.654Z,101286.03
2018-09-18T16:28:12.110Z,101287.55
2018-09-18T16:30:48.143Z,101290.53
2018-09-18T16:33:24.275Z,101296.54
2018-09-18T16:36:00.126Z,101289.68
2018-09-18T16:38:37.205Z,101294.88
2018-09-18T16:41:13.141Z,101290.87
2018-09-18T16:43:49.635Z,101293.69
2018-09-18T16:46:25.468Z,101292.52
2018-09-18T16:49:01.462Z,101289.00
2018-09-18T16:51:37.950Z,101282.81
2018-09-18T16:54:14.328Z,101280.80
2018-09-18T16:56:50.137Z,101282.67
2018-09-18T16:59:25.997Z,101281.33
2018-09-18T17:02:01.972Z,101274.97
2018-09-18T17:04:38.134Z,101276.80
2018-09-18T17:07:14.119Z,101277.81
2018-09-18T17:09:50.330Z,101280.00
2018-09-18T17:12:26.533Z,101281.83
2018-09-18T17:15:03.269Z,101275.81
2018-09-18T17:17:39.066Z,101280.48
2018-09-18T17:20:15.307Z,101283.16
2018-09-18T17:22:51.485Z,101281.83
2018-09-18T17:25:27.320Z,101286.68
2018-09-18T17:28:03.304Z,101289.67
2018-09-18T17:30:39.349Z,101285.66
2018-09-18T17:33:15.294Z,101285.66
2018-09-18T17:35:51.290Z,101278.00
2018-09-18T17:38:27.289Z,101265.97
2018-09-18T17:41:04.026Z,101275.15
2018-09-18T17:43:39.986Z,101269.80
2018-09-18T17:46:15.651Z,101266.64
2018-09-18T17:48:52.508Z,101266.95
2018-09-18T17:51:28.478Z,101265.97
2018-09-18T17:54:04.309Z,101266.15
2018-09-18T17:56:40.234Z,101264.81
2018-09-18T17:59:16.127Z,101265.62
2018-09-18T18:01:51.945Z,101257.78
2018-09-18T18:04:27.983Z,101255.63
2018-09-18T18:07:04.105Z,101253.45
2018-09-18T18:09:40.121Z,101248.78
2018-09-18T18:12:16.212Z,101249.77
2018-09-18T18:14:52.262Z,101247.45
2018-09-18T18:17:28.257Z,101239.95
2018-09-18T18:20:04.473Z,101234.92
2018-09-18T18:22:40.495Z,101230.23
2018-09-18T18:25:16.681Z,101236.78
2018-09-18T18:27:53.238Z,101237.09
2018-09-18T18:30:29.227Z,101233.93
2018-09-18T18:33:05.258Z,101227.91
2018-09-18T18:35:41.323Z,101223.73
2018-09-18T18:38:17.311Z,101215.21
2018-09-18T18:40:53.384Z,101212.36
2018-09-18T18:43:29.509Z,101209.37
2018-09-18T18:46:05.243Z,101199.83
2018-09-18T18:48:41.401Z,101200.00
2018-09-18T18:51:17.670Z,101196.98
2018-09-18T18:53:53.505Z,101197.01
2018-09-18T18:56:29.502Z,101203.02
2018-09-18T18:59:05.357Z,101195.31
2018-09-18T19:01:41.337Z,101188.80
2018-09-18T19:04:17.522Z,101181.16
2018-09-18T19:06:54.139Z,101179.95
2018-09-18T19:09:30.146Z,101173.97
2018-09-18T19:12:06.155Z,101174.45
2018-09-18T19:14:42.513Z,101170.11
2018-09-18T19:17:18.529Z,101166.77
2018-09-18T19:19:54.344Z,101165.06
2018-09-18T19:22:30.355Z,101163.05
2018-09-18T19:25:06.363Z,101161.39
2018-09-18T19:27:42.180Z,101165.39
2018-09-18T19:30:18.314Z,101161.54
2018-09-18T19:32:54.208Z,101161.05
2018-09-18T19:35:30.337Z,101153.19
2018-09-18T19:38:06.376Z,101155.00
2018-09-18T19:40:42.349Z,101150.66
2018-09-18T19:43:18.834Z,101144.28
2018-09-18T19:45:55.314Z,101152.14
2018-09-18T19:48:31.360Z,101149.63
2018-09-18T19:51:07.523Z,101141.60
2018-09-18T19:53:43.533Z,101135.39
2018-09-18T19:56:19.529Z,101138.72
2018-09-18T19:58:55.463Z,101134.19
2018-09-18T20:01:31.569Z,101134.36
2018-09-18T20:04:07.525Z,101135.05
2018-09-18T20:06:43.553Z,101130.70
2018-09-18T20:09:19.601Z,101128.15
2018-09-18T20:11:55.530Z,101116.78
2018-09-18T20:14:31.700Z,101111.06
2018-09-18T20:17:08.085Z,101105.20
2018-09-18T20:19:44.361Z,101094.66
2018-09-18T20:22:20.180Z,101099.49
2018-09-18T20:24:56.766Z,101092.95
2018-09-18T20:27:33.043Z,101092.08
2018-09-18T20:30:09.201Z,101082.70
2018-09-18T20:32:45.272Z,101084.02
2018-09-18T20:35:21.363Z,101083.87
2018-09-18T20:37:57.351Z,101078.63
2018-09-18T20:40:33.368Z,101074.46
2018-09-18T20:43:09.274Z,101069.25
2018-09-18T20:45:45.227Z,101071.06
2018-09-18T20:48:21.410Z,101072.06
2018-09-18T20:50:57.354Z,101062.50
2018-09-18T20:53:33.246Z,101059.12
2018-09-18T20:56:09.366Z,101053.58
2018-09-18T20:58:45.370Z,101047.37
2018-09-18T21:01:21.540Z,101049.03
2018-09-18T21:03:57.580Z,101050.21
2018-09-18T21:06:33.349Z,101043.13
2018-09-18T21:09:11.271Z,101038.80
2018-09-18T21:11:47.377Z,101038.11
2018-09-18T21:14:23.397Z,101040.59
2018-09-18T21:16:59.550Z,101031.06
2018-09-18T21:19:35.379Z,101032.52
2018-09-18T21:22:11.282Z,101025.12
2018-09-18T21:24:47.359Z,101023.79
2018-09-18T21:27:23.366Z,101029.64
2018-09-18T21:29:59.315Z,101016.39
2018-09-18T21:32:35.347Z,101008.50
2018-09-18T21:35:12.121Z,101006.13
2018-09-18T21:37:48.181Z,101002.75
2018-09-18T21:40:24.557Z,101002.40
2018-09-18T21:43:00.559Z,101003.55
2018-09-18T21:45:36.563Z,101004.20
2018-09-18T21:48:13.098Z,101007.52
2018-09-18T21:50:49.329Z,101010.86
2018-09-18T21:53:25.604Z,101010.69
2018-09-18T21:56:01.603Z,101015.17
2018-09-18T21:58:37.770Z,101010.45
2018-09-18T22:01:13.988Z,101015.66
2018-09-18T22:03:50.088Z,101012.78
2018-09-18T22:06:24.212Z,101010.25
2018-09-18T22:09:00.239Z,101006.22
2018-09-18T22:11:36.405Z,100999.66
2018-09-18T22:14:12.402Z,101008.66
2018-09-18T22:16:48.233Z,101004.59
2018-09-18T22:19:24.402Z,101002.59
2018-09-18T22:22:00.199Z,101000.57
2018-09-18T22:24:36.385Z,101008.09
2018-09-18T22:27:12.381Z,101004.72
2018-09-18T22:29:48.577Z,101009.59
2018-09-18T22:32:24.607Z,101008.89
2018-09-18T22:35:00.247Z,101013.25
2018-09-18T22:37:36.223Z,101009.03
2018-09-18T22:40:11.757Z,101004.00
2018-09-18T22:42:47.529Z,100992.23
2018-09-18T22:45:23.412Z,100997.75
2018-09-18T22:47:59.432Z,100989.25
2018-09-18T22:50:35.329Z,100998.09
2018-09-18T22:53:11.410Z,100997.05
2018-09-18T22:55:48.170Z,100983.63
2018-09-18T22:58:24.202Z,100982.94
2018-09-18T23:01:00.236Z,100982.09
2018-09-18T23:03:36.303Z,100983.27
2018-09-18T23:06:12.231Z,100992.33
2018-09-18T23:08:48.430Z,100988.00
2018-09-18T23:11:24.309Z,100984.28
2018-09-18T23:14:00.594Z,100983.78
2018-09-18T23:16:36.445Z,100977.41
2018-09-18T23:19:12.178Z,100979.56
2018-09-18T23:21:47.797Z,100971.00
2018-09-18T23:24:23.458Z,100969.47
2018-09-18T23:26:59.290Z,100972.48
2018-09-18T23:29:34.760Z,100967.62
2018-09-18T23:32:12.405Z,100974.14
2018-09-18T23:34:47.646Z,100969.11
2018-09-18T23:37:23.401Z,100974.28
2018-09-18T23:39:58.884Z,100973.97
2018-09-18T23:42:34.256Z,100968.41
2018-09-18T23:45:09.836Z,100966.06
2018-09-18T23:47:45.538Z,100958.66
2018-09-18T23:50:20.872Z,100961.64
2018-09-18T23:52:56.438Z,100964.16
2018-09-18T23:55:32.614Z,100956.91
2018-09-18T23:58:08.199Z,100966.95
